createdAt,value
2019-02-28T00:01:11.978Z,16.00
2019-02-28T00:03:40.717Z,15.40
2019-02-28T00:06:12.662Z,16.27
2019-02-28T00:08:44.419Z,15.30
2019-02-28T00:11:13.845Z,13.60
2019-02-28T00:13:43.274Z,15.73
2019-02-28T00:16:12.756Z,16.33
2019-02-28T00:18:42.205Z,15.63
2019-02-28T00:21:11.906Z,16.10
2019-02-28T00:23:41.340Z,16.17
2019-02-28T00:26:11.650Z,17.67
2019-02-28T00:28:41.762Z,13.17
2019-02-28T00:31:15.315Z,14.57
2019-02-28T00:33:42.484Z,14.30
2019-02-28T00:36:11.909Z,13.67
2019-02-28T00:38:41.349Z,14.53
2019-02-28T00:41:10.796Z,14.23
2019-02-28T00:43:40.212Z,13.83
2019-02-28T00:46:09.994Z,13.90
2019-02-28T00:48:40.347Z,13.37
2019-02-28T00:51:09.848Z,14.70
2019-02-28T00:53:39.340Z,14.53
2019-02-28T00:56:09.916Z,14.80
2019-02-28T00:58:39.332Z,14.30
2019-02-28T01:01:11.573Z,16.93
2019-02-28T01:03:40.043Z,15.47
2019-02-28T01:06:10.507Z,15.43
2019-02-28T01:08:40.103Z,15.77
2019-02-28T01:11:13.254Z,18.70
2019-02-28T01:13:41.637Z,16.90
2019-02-28T01:16:11.052Z,18.77
2019-02-28T01:18:40.924Z,17.13
2019-02-28T01:21:10.479Z,21.27
2019-02-28T01:23:39.993Z,17.93
2019-02-28T01:26:11.725Z,23.60
2019-02-28T01:28:40.556Z,23.57
2019-02-28T01:31:11.573Z,23.17
2019-02-28T01:33:41.118Z,25.27
2019-02-28T01:36:12.283Z,24.40
2019-02-28T01:38:41.702Z,24.50
2019-02-28T01:41:11.848Z,22.93
2019-02-28T01:43:41.415Z,24.47
2019-02-28T01:46:10.859Z,28.57
2019-02-28T01:48:40.278Z,23.87
2019-02-28T01:51:09.813Z,35.80
2019-02-28T01:53:39.233Z,35.03
2019-02-28T01:56:08.689Z,33.30
2019-02-28T01:58:38.117Z,36.37
2019-02-28T02:01:07.565Z,36.43
2019-02-28T02:03:37.009Z,39.63
2019-02-28T02:06:06.480Z,40.10
2019-02-28T02:08:37.799Z,38.93
2019-02-28T02:11:07.058Z,33.60
2019-02-28T02:13:37.400Z,39.83
2019-02-28T02:16:07.029Z,36.97
2019-02-28T02:18:40.319Z,34.23
2019-02-28T02:21:08.560Z,36.00
2019-02-28T02:23:38.019Z,34.70
2019-02-28T02:26:08.429Z,34.73
2019-02-28T02:28:38.669Z,35.03
2019-02-28T02:31:08.105Z,38.27
2019-02-28T02:33:37.554Z,34.23
2019-02-28T02:36:07.045Z,36.63
2019-02-28T02:38:41.417Z,35.17
2019-02-28T02:41:07.615Z,37.77
2019-02-28T02:43:37.046Z,37.73
2019-02-28T02:46:06.483Z,39.40
2019-02-28T02:48:38.480Z,38.60
2019-02-28T02:51:10.625Z,37.23
2019-02-28T02:53:41.917Z,41.70
2019-02-28T02:56:09.472Z,43.17
2019-02-28T02:58:38.908Z,37.50
2019-02-28T03:01:08.468Z,38.57
2019-02-28T03:03:42.884Z,37.00
2019-02-28T03:06:13.557Z,40.70
2019-02-28T03:08:40.165Z,41.10
2019-02-28T03:11:09.621Z,41.63
2019-02-28T03:13:43.728Z,43.67
2019-02-28T03:16:10.262Z,43.50
2019-02-28T03:18:39.715Z,46.53
2019-02-28T03:21:10.204Z,50.90
2019-02-28T03:23:40.516Z,51.93
2019-02-28T03:26:10.048Z,50.07
2019-02-28T03:28:39.492Z,51.07
2019-02-28T03:31:14.124Z,49.80
2019-02-28T03:33:40.135Z,52.50
2019-02-28T03:36:09.598Z,52.33
2019-02-28T03:38:39.024Z,57.97
2019-02-28T03:41:16.060Z,56.67
2019-02-28T03:43:43.759Z,59.60
2019-02-28T03:46:11.603Z,59.47
2019-02-28T03:48:41.197Z,59.50
2019-02-28T03:51:10.717Z,62.90
2019-02-28T03:53:40.144Z,65.30
2019-02-28T03:56:14.308Z,57.53
2019-02-28T03:58:42.938Z,62.77
2019-02-28T04:01:12.278Z,62.73
2019-02-28T04:03:41.701Z,69.93
2019-02-28T04:06:11.262Z,64.73
2019-02-28T04:08:40.707Z,67.47
2019-02-28T04:11:10.130Z,60.27
2019-02-28T04:13:39.618Z,69.17
2019-02-28T04:16:10.085Z,68.63
2019-02-28T04:18:44.366Z,64.40
2019-02-28T04:21:12.194Z,67.03
2019-02-28T04:23:41.708Z,72.13
2019-02-28T04:26:11.137Z,69.57
2019-02-28T04:28:40.700Z,68.23
2019-02-28T04:31:10.124Z,74.27
2019-02-28T04:33:39.579Z,73.53
2019-02-28T04:36:09.007Z,72.80
2019-02-28T04:38:38.453Z,74.33
2019-02-28T04:41:07.905Z,81.50
2019-02-28T04:43:37.383Z,77.13
2019-02-28T04:46:06.899Z,72.47
2019-02-28T04:48:36.320Z,75.33
2019-02-28T04:51:06.573Z,74.30
2019-02-28T04:53:36.814Z,73.37
2019-02-28T04:56:11.170Z,74.53
2019-02-28T04:58:40.357Z,76.57
2019-02-28T05:01:09.156Z,70.57
2019-02-28T05:03:40.004Z,73.77
2019-02-28T05:06:09.467Z,73.20
2019-02-28T05:08:39.794Z,73.77
2019-02-28T05:11:09.232Z,81.60
2019-02-28T05:13:41.050Z,78.83
2019-02-28T05:16:12.277Z,72.77
2019-02-28T05:18:40.927Z,78.80
2019-02-28T05:21:10.384Z,77.97
2019-02-28T05:23:39.820Z,80.67
2019-02-28T05:26:09.242Z,72.93
2019-02-28T05:28:41.126Z,78.27
2019-02-28T05:31:10.962Z,76.27
2019-02-28T05:33:42.012Z,74.73
2019-02-28T05:36:11.528Z,74.00
2019-02-28T05:38:42.100Z,80.00
2019-02-28T05:41:12.133Z,73.77
2019-02-28T05:43:42.690Z,79.90
2019-02-28T05:46:12.170Z,80.67
2019-02-28T05:48:43.132Z,81.13
2019-02-28T05:51:12.556Z,81.90
2019-02-28T05:53:42.732Z,77.57
2019-02-28T05:56:12.305Z,76.93
2019-02-28T05:58:42.828Z,80.90
2019-02-28T06:01:12.596Z,77.70
2019-02-28T06:03:42.113Z,77.40
2019-02-28T06:06:11.541Z,76.67
2019-02-28T06:08:40.980Z,74.70
2019-02-28T06:11:10.408Z,85.93
2019-02-28T06:13:39.863Z,88.93
2019-02-28T06:16:12.395Z,87.73
2019-02-28T06:18:40.411Z,85.33
2019-02-28T06:21:10.411Z,91.47
2019-02-28T06:23:41.624Z,86.33
2019-02-28T06:26:11.141Z,81.00
2019-02-28T06:28:40.570Z,87.37
2019-02-28T06:31:10.019Z,87.47
2019-02-28T06:33:39.437Z,80.10
2019-02-28T06:36:08.885Z,82.43
2019-02-28T06:38:38.313Z,87.20
2019-02-28T06:41:08.695Z,90.23
2019-02-28T06:43:38.165Z,89.23
2019-02-28T06:46:08.524Z,98.17
2019-02-28T06:48:38.708Z,93.53
2019-02-28T06:51:08.166Z,87.70
2019-02-28T06:53:38.837Z,98.23
2019-02-28T06:56:08.358Z,89.53
2019-02-28T06:58:37.800Z,99.03
2019-02-28T07:01:07.320Z,92.60
2019-02-28T07:03:38.806Z,96.10
2019-02-28T07:06:07.877Z,99.07
2019-02-28T07:08:37.326Z,91.57
2019-02-28T07:11:07.939Z,90.83
2019-02-28T07:13:39.938Z,93.23
2019-02-28T07:16:08.522Z,93.90
2019-02-28T07:18:38.083Z,93.27
2019-02-28T07:21:08.610Z,100.80
2019-02-28T07:23:38.090Z,93.20
2019-02-28T07:26:07.538Z,100.43
2019-02-28T07:28:37.717Z,93.80
2019-02-28T07:31:07.370Z,98.03
2019-02-28T07:33:36.819Z,94.77
2019-02-28T07:36:09.537Z,107.77
2019-02-28T07:38:37.483Z,96.07
2019-02-28T07:41:08.006Z,100.70
2019-02-28T07:43:37.830Z,93.53
2019-02-28T07:46:08.743Z,99.83
2019-02-28T07:48:38.385Z,105.63
2019-02-28T07:51:07.831Z,93.77
2019-02-28T07:53:37.280Z,96.53
2019-02-28T07:56:07.784Z,90.83
2019-02-28T07:58:37.394Z,92.17
2019-02-28T08:01:06.959Z,96.10
2019-02-28T08:03:36.402Z,99.00
2019-02-28T08:06:05.901Z,96.03
2019-02-28T08:08:35.424Z,117.07
2019-02-28T08:11:05.051Z,124.23
2019-02-28T08:13:37.880Z,103.83
2019-02-28T08:16:05.835Z,93.33
2019-02-28T08:18:35.255Z,96.13
2019-02-28T08:21:08.807Z,97.97
2019-02-28T08:23:38.652Z,90.83
2019-02-28T08:26:08.171Z,99.00
2019-02-28T08:28:37.589Z,97.97
2019-02-28T08:31:07.569Z,91.00
2019-02-28T08:33:37.005Z,96.37
2019-02-28T08:36:11.568Z,95.97
2019-02-28T08:38:37.793Z,86.77
2019-02-28T08:41:07.203Z,88.77
2019-02-28T08:43:36.715Z,89.33
2019-02-28T08:46:09.662Z,92.17
2019-02-28T08:48:37.415Z,93.70
2019-02-28T08:51:08.550Z,89.73
2019-02-28T08:53:37.971Z,90.53
2019-02-28T08:56:07.561Z,92.57
2019-02-28T08:58:37.763Z,94.27
2019-02-28T09:01:11.345Z,84.67
2019-02-28T09:03:42.547Z,93.77
2019-02-28T09:06:12.133Z,93.43
2019-02-28T09:08:41.641Z,88.23
2019-02-28T09:11:11.541Z,91.83
2019-02-28T09:13:43.007Z,81.20
2019-02-28T09:16:12.184Z,85.47
2019-02-28T09:18:41.629Z,92.80
2019-02-28T09:21:11.158Z,81.47
2019-02-28T09:23:40.720Z,88.30
2019-02-28T09:26:10.205Z,90.47
2019-02-28T09:28:39.651Z,88.30
2019-02-28T09:31:10.852Z,79.57
2019-02-28T09:33:40.454Z,91.00
2019-02-28T09:36:09.908Z,89.00
2019-02-28T09:38:42.351Z,85.70
2019-02-28T09:41:12.170Z,81.00
2019-02-28T09:43:41.613Z,84.40
2019-02-28T09:46:12.502Z,73.30
2019-02-28T09:48:43.301Z,80.43
2019-02-28T09:51:12.789Z,73.07
2019-02-28T09:53:42.278Z,79.60
2019-02-28T09:56:11.743Z,74.20
2019-02-28T09:58:41.164Z,81.20
2019-02-28T10:01:10.924Z,77.00
2019-02-28T10:03:40.500Z,77.40
2019-02-28T10:06:09.897Z,73.83
2019-02-28T10:08:39.337Z,77.03
2019-02-28T10:11:08.774Z,75.03
2019-02-28T10:13:38.209Z,74.63
2019-02-28T10:16:13.616Z,69.33
2019-02-28T10:18:41.759Z,69.30
2019-02-28T10:21:11.220Z,73.83
2019-02-28T10:23:40.718Z,88.97
2019-02-28T10:26:10.243Z,81.13
2019-02-28T10:28:39.691Z,76.60
2019-02-28T10:31:09.212Z,74.70
2019-02-28T10:33:38.661Z,67.43
2019-02-28T10:36:09.273Z,68.23
2019-02-28T10:38:39.241Z,70.50
2019-02-28T10:41:08.720Z,72.43
2019-02-28T10:43:38.255Z,70.97
2019-02-28T10:46:07.692Z,76.17
2019-02-28T10:48:41.851Z,71.07
2019-02-28T10:51:14.099Z,73.60
2019-02-28T10:53:40.191Z,71.70
2019-02-28T10:56:10.749Z,73.70
2019-02-28T10:58:40.270Z,73.50
2019-02-28T11:01:10.868Z,68.20
2019-02-28T11:03:40.364Z,68.17
2019-02-28T11:06:09.885Z,66.63
2019-02-28T11:08:39.453Z,68.37
2019-02-28T11:11:11.230Z,67.90
2019-02-28T11:13:41.475Z,66.40
2019-02-28T11:16:11.079Z,64.73
2019-02-28T11:18:41.914Z,61.13
2019-02-28T11:21:12.678Z,69.87
2019-02-28T11:23:42.241Z,68.10
2019-02-28T11:26:12.736Z,67.13
2019-02-28T11:28:42.164Z,65.20
2019-02-28T11:31:11.688Z,68.70
2019-02-28T11:33:41.491Z,69.47
2019-02-28T11:36:11.031Z,66.63
2019-02-28T11:38:40.633Z,60.10
2019-02-28T11:41:12.249Z,63.87
2019-02-28T11:43:41.541Z,60.57
2019-02-28T11:46:11.037Z,59.60
2019-02-28T11:48:40.469Z,59.73
2019-02-28T11:51:10.432Z,63.87
2019-02-28T11:53:40.563Z,57.63
2019-02-28T11:56:10.275Z,64.10
2019-02-28T11:58:39.786Z,64.20
2019-02-28T12:01:11.460Z,59.87
2019-02-28T12:03:41.085Z,57.57
2019-02-28T12:06:10.650Z,63.73
2019-02-28T12:08:41.548Z,58.93
2019-02-28T12:11:11.378Z,58.97
2019-02-28T12:13:40.814Z,59.20
2019-02-28T12:16:10.334Z,64.43
2019-02-28T12:18:40.872Z,60.97
2019-02-28T12:21:10.810Z,58.37
2019-02-28T12:23:44.015Z,57.80
2019-02-28T12:26:38.040Z,62.30
2019-02-28T12:29:09.398Z,57.50
2019-02-28T12:31:39.425Z,55.87
2019-02-28T12:34:08.904Z,62.43
2019-02-28T12:36:38.632Z,60.33
2019-02-28T12:39:08.556Z,57.20
2019-02-28T12:41:40.079Z,63.70
2019-02-28T12:44:12.349Z,64.10
2019-02-28T12:46:43.434Z,59.77
2019-02-28T12:49:12.907Z,58.27
2019-02-28T12:51:42.426Z,57.87
2019-02-28T12:54:11.945Z,55.73
2019-02-28T12:56:41.584Z,54.57
2019-02-28T12:59:11.223Z,57.00
2019-02-28T13:01:40.817Z,56.60
2019-02-28T13:04:10.314Z,56.70
2019-02-28T13:06:39.784Z,58.97
2019-02-28T13:09:09.196Z,59.77
2019-02-28T13:11:38.728Z,57.73
2019-02-28T13:14:08.245Z,53.37
2019-02-28T13:16:37.855Z,56.30
2019-02-28T13:19:08.820Z,59.47
2019-02-28T13:21:38.465Z,59.57
2019-02-28T13:24:09.582Z,66.93
2019-02-28T13:26:39.079Z,64.70
2019-02-28T13:29:10.085Z,60.77
2019-02-28T13:31:40.863Z,67.00
2019-02-28T13:34:10.911Z,63.33
2019-02-28T13:36:40.389Z,60.67
2019-02-28T13:39:12.806Z,65.00
2019-02-28T13:41:42.262Z,62.50
2019-02-28T13:44:11.934Z,65.70
2019-02-28T13:46:41.461Z,66.83
2019-02-28T13:49:12.117Z,64.97
2019-02-28T13:51:42.725Z,64.10
2019-02-28T13:54:12.280Z,63.73
2019-02-28T13:56:41.702Z,69.90
2019-02-28T13:59:12.399Z,64.47
2019-02-28T14:01:41.914Z,64.77
2019-02-28T14:04:11.416Z,63.20
2019-02-28T14:06:40.824Z,63.77
2019-02-28T14:09:10.431Z,64.67
2019-02-28T14:11:41.906Z,65.20
2019-02-28T14:14:11.391Z,70.47
2019-02-28T14:16:40.894Z,62.97
2019-02-28T14:19:10.497Z,63.27
2019-02-28T14:21:40.095Z,61.20
2019-02-28T14:24:09.627Z,63.93
2019-02-28T14:26:42.792Z,60.13
2019-02-28T14:29:11.627Z,57.73
2019-02-28T14:31:41.330Z,58.13
2019-02-28T14:34:10.932Z,67.50
2019-02-28T14:36:41.819Z,60.93
2019-02-28T14:39:13.403Z,63.30
2019-02-28T14:41:42.974Z,63.17
2019-02-28T14:44:13.470Z,56.63
2019-02-28T14:46:43.387Z,60.80
2019-02-28T14:49:13.704Z,61.77
2019-02-28T14:51:44.485Z,65.07
2019-02-28T14:54:14.156Z,65.77
2019-02-28T14:56:43.854Z,58.47
2019-02-28T14:59:13.419Z,64.97
2019-02-28T15:01:43.009Z,60.50
2019-02-28T15:04:12.516Z,61.70
2019-02-28T15:06:42.025Z,60.60
2019-02-28T15:09:17.915Z,60.40
2019-02-28T15:11:48.258Z,61.63
2019-02-28T15:14:18.756Z,57.20
2019-02-28T15:16:48.306Z,62.87
2019-02-28T15:19:18.000Z,62.27
2019-02-28T15:21:47.447Z,58.73
2019-02-28T15:24:16.896Z,60.37
2019-02-28T15:26:46.365Z,65.77
2019-02-28T15:29:20.202Z,64.83
2019-02-28T15:31:48.662Z,63.93
2019-02-28T15:34:18.097Z,58.47
2019-02-28T15:36:47.560Z,62.60
2019-02-28T15:39:17.361Z,67.53
2019-02-28T15:41:47.993Z,63.10
2019-02-28T15:44:18.992Z,61.10
2019-02-28T15:46:48.415Z,58.27
2019-02-28T15:49:18.047Z,69.20
2019-02-28T15:51:47.554Z,63.23
2019-02-28T15:54:17.093Z,69.10
2019-02-28T15:56:46.600Z,69.03
2019-02-28T15:59:16.200Z,62.53
2019-02-28T16:01:45.714Z,70.73
2019-02-28T16:04:15.531Z,69.57
2019-02-28T16:06:44.968Z,68.07
2019-02-28T16:09:18.793Z,66.23
2019-02-28T16:11:46.852Z,73.17
2019-02-28T16:14:18.016Z,71.80
2019-02-28T16:16:48.361Z,66.97
2019-02-28T16:19:18.835Z,71.73
2019-02-28T16:21:49.158Z,72.47
2019-02-28T16:24:18.616Z,63.83
2019-02-28T16:26:48.208Z,67.37
2019-02-28T16:29:20.634Z,72.33
2019-02-28T16:31:51.812Z,69.13
2019-02-28T16:34:21.747Z,73.63
2019-02-28T16:36:51.215Z,80.57
2019-02-28T16:39:20.718Z,78.53
2019-02-28T16:41:50.264Z,74.43
2019-02-28T16:44:22.707Z,70.03
2019-02-28T16:46:56.806Z,77.10
2019-02-28T16:49:28.067Z,82.10
2019-02-28T16:51:57.907Z,77.27
2019-02-28T16:54:27.924Z,73.63
2019-02-28T16:56:57.521Z,71.20
2019-02-28T16:59:31.708Z,73.57
2019-02-28T17:02:01.430Z,69.30
2019-02-28T17:04:30.928Z,76.63
2019-02-28T17:07:02.638Z,78.00
2019-02-28T17:09:33.457Z,77.00
2019-02-28T17:12:04.609Z,71.03
2019-02-28T17:14:34.279Z,66.70
2019-02-28T17:17:08.690Z,71.47
2019-02-28T17:19:38.721Z,73.17
2019-02-28T17:22:08.328Z,74.93
2019-02-28T17:24:38.021Z,72.90
2019-02-28T17:27:14.702Z,73.77
2019-02-28T17:29:50.639Z,68.07
2019-02-28T17:32:20.711Z,72.87
2019-02-28T17:34:50.367Z,85.97
2019-02-28T17:37:25.521Z,75.97
2019-02-28T17:39:53.530Z,77.83
2019-02-28T17:42:23.856Z,86.97
2019-02-28T17:44:59.607Z,78.53
2019-02-28T17:47:48.689Z,78.37
2019-02-28T17:50:34.931Z,75.73
2019-02-28T17:53:17.981Z,74.23
2019-02-28T17:56:22.851Z,86.57
2019-02-28T17:59:26.725Z,81.97
2019-02-28T18:02:32.777Z,86.73
2019-02-28T18:05:30.341Z,90.33
2019-02-28T18:08:32.280Z,97.47
2019-02-28T18:11:30.887Z,82.80
2019-02-28T18:14:15.479Z,86.30
2019-02-28T18:17:19.848Z,97.80
2019-02-28T18:20:13.633Z,89.03
2019-02-28T18:22:57.147Z,90.50
2019-02-28T18:25:57.089Z,95.43
2019-02-28T18:28:33.335Z,95.77
2019-02-28T18:31:14.356Z,103.10
2019-02-28T18:33:49.312Z,103.33
2019-02-28T18:36:21.895Z,107.40
2019-02-28T18:38:51.350Z,96.47
2019-02-28T18:41:20.868Z,98.73
2019-02-28T18:43:51.803Z,104.43
2019-02-28T18:46:21.263Z,94.77
2019-02-28T18:48:51.319Z,101.70
2019-02-28T18:51:25.062Z,97.43
2019-02-28T18:53:55.753Z,109.00
2019-02-28T18:56:27.052Z,102.67
2019-02-28T18:58:56.620Z,93.50
2019-02-28T19:01:26.220Z,99.47
2019-02-28T19:03:58.372Z,98.93
2019-02-28T19:06:29.422Z,92.97
2019-02-28T19:09:00.532Z,95.83
2019-02-28T19:11:32.360Z,91.07
2019-02-28T19:14:02.194Z,103.97
2019-02-28T19:16:31.650Z,83.30
2019-02-28T19:19:01.084Z,102.43
2019-02-28T19:21:30.680Z,96.77
2019-02-28T19:24:00.102Z,96.83
2019-02-28T19:26:29.563Z,99.83
2019-02-28T19:29:02.046Z,108.23
2019-02-28T19:31:31.738Z,114.73
2019-02-28T19:34:01.360Z,108.17
2019-02-28T19:36:32.676Z,109.50
2019-02-28T19:39:02.265Z,113.93
2019-02-28T19:41:33.494Z,114.00
2019-02-28T19:44:03.008Z,104.27
2019-02-28T19:46:32.549Z,112.87
2019-02-28T19:49:05.371Z,110.03
2019-02-28T19:51:34.881Z,98.27
2019-02-28T19:54:04.485Z,103.33
2019-02-28T19:56:33.918Z,114.20
2019-02-28T19:59:03.485Z,111.43
2019-02-28T20:01:34.002Z,122.80
2019-02-28T20:04:05.119Z,111.23
2019-02-28T20:06:34.719Z,115.27
2019-02-28T20:09:05.992Z,113.00
2019-02-28T20:11:37.395Z,114.17
2019-02-28T20:14:09.937Z,110.17
2019-02-28T20:16:41.129Z,123.87
2019-02-28T20:19:13.025Z,108.83
2019-02-28T20:21:42.804Z,113.30
2019-02-28T20:24:12.739Z,106.37
2019-02-28T20:26:42.579Z,109.07
2019-02-28T20:29:12.252Z,99.53
2019-02-28T20:31:41.813Z,106.30
2019-02-28T20:34:11.423Z,116.77
2019-02-28T20:36:40.999Z,113.87
2019-02-28T20:39:12.433Z,121.67
2019-02-28T20:41:45.963Z,119.50
2019-02-28T20:44:15.497Z,118.07
2019-02-28T20:46:45.185Z,115.90
2019-02-28T20:49:14.700Z,108.00
2019-02-28T20:51:54.749Z,108.67
2019-02-28T20:54:18.202Z,102.03
2019-02-28T20:56:47.734Z,118.33
2019-02-28T20:59:17.606Z,108.00
2019-02-28T21:01:48.205Z,105.47
2019-02-28T21:04:17.779Z,123.37
2019-02-28T21:06:50.312Z,121.23
2019-02-28T21:09:19.983Z,104.37
2019-02-28T21:11:49.607Z,112.70
2019-02-28T21:14:19.140Z,120.07
2019-02-28T21:16:49.495Z,123.30
2019-02-28T21:19:21.174Z,114.40
2019-02-28T21:21:51.794Z,125.33
2019-02-28T21:24:22.931Z,114.43
2019-02-28T21:26:52.386Z,124.97
2019-02-28T21:29:27.488Z,112.03
2019-02-28T21:31:57.003Z,127.17
2019-02-28T21:34:27.856Z,123.23
2019-02-28T21:36:59.416Z,114.77
2019-02-28T21:39:28.926Z,115.53
2019-02-28T21:42:00.064Z,127.47
2019-02-28T21:44:29.585Z,129.73
2019-02-28T21:47:05.883Z,109.77
2019-02-28T21:49:30.462Z,123.80
2019-02-28T21:52:00.058Z,125.97
2019-02-28T21:54:29.602Z,109.47
2019-02-28T21:56:59.196Z,113.93
2019-02-28T21:59:28.876Z,116.47
2019-02-28T22:01:58.528Z,135.67
2019-02-28T22:04:28.133Z,115.80
2019-02-28T22:06:57.711Z,121.77
2019-02-28T22:09:27.222Z,117.70
2019-02-28T22:11:56.812Z,123.73
2019-02-28T22:14:26.274Z,122.43
2019-02-28T22:16:55.776Z,126.57
2019-02-28T22:19:25.304Z,116.73
2019-02-28T22:21:54.815Z,112.97
2019-02-28T22:24:24.421Z,124.50
2019-02-28T22:26:53.948Z,131.27
2019-02-28T22:29:23.472Z,122.57
2019-02-28T22:31:57.798Z,122.20
2019-02-28T22:34:34.471Z,128.27
2019-02-28T22:37:04.213Z,111.67
2019-02-28T22:39:33.639Z,128.70
2019-02-28T22:42:03.225Z,134.47
2019-02-28T22:44:32.727Z,130.27
2019-02-28T22:47:02.183Z,126.90
2019-02-28T22:49:33.568Z,112.93
2019-02-28T22:52:02.852Z,130.87
2019-02-28T22:54:32.459Z,127.13
2019-02-28T22:57:01.916Z,111.30
2019-02-28T22:59:31.421Z,123.23
2019-02-28T23:02:01.101Z,131.13
2019-02-28T23:04:30.741Z,118.07
2019-02-28T23:07:00.251Z,119.47
2019-02-28T23:09:29.871Z,120.63
2019-02-28T23:11:59.297Z,133.07
2019-02-28T23:14:28.836Z,116.23
2019-02-28T23:16:59.965Z,114.23
2019-02-28T23:19:29.375Z,119.70
2019-02-28T23:22:01.843Z,124.57
2019-02-28T23:24:33.304Z,117.77
2019-02-28T23:27:18.635Z,133.90
2019-02-28T23:29:57.436Z,127.63
2019-02-28T23:32:35.688Z,133.10
2019-02-28T23:35:11.051Z,133.83
2019-02-28T23:37:40.495Z,143.00
2019-02-28T23:40:10.100Z,132.33
2019-02-28T23:42:39.589Z,128.10
2019-02-28T23:45:09.177Z,137.03
2019-02-28T23:47:38.610Z,129.33
2019-02-28T23:50:09.770Z,138.80
2019-02-28T23:52:39.219Z,133.63
2019-02-28T23:55:09.595Z,124.40
2019-02-28T23:57:39.046Z,117.37
